createdAt,value
2023-05-12T00:01:23.837Z,58.04
2023-05-12T00:03:53.828Z,58.09
2023-05-12T00:06:21.517Z,58.10
2023-05-12T00:08:48.797Z,58.09
2023-05-12T00:11:16.067Z,58.08
2023-05-12T00:13:43.505Z,58.26
2023-05-12T00:18:37.924Z,58.15
2023-05-12T00:21:05.296Z,58.16
2023-05-12T00:23:32.633Z,58.04
2023-05-12T00:25:59.992Z,58.23
2023-05-12T00:28:27.298Z,58.36
2023-05-12T00:30:54.630Z,58.18
2023-05-12T00:33:21.904Z,58.15
2023-05-12T00:38:16.142Z,58.26
2023-05-12T00:40:43.379Z,58.26
2023-05-12T00:43:11.616Z,58.32
2023-05-12T00:45:39.405Z,58.33
2023-05-12T00:48:07.816Z,58.29
2023-05-12T00:50:35.462Z,58.24
2023-05-12T00:53:04.186Z,58.22
2023-05-12T00:55:31.736Z,58.20
2023-05-12T00:57:59.813Z,58.24
2023-05-12T01:00:28.646Z,58.37
2023-05-12T01:02:59.353Z,58.26
2023-05-12T01:05:35.296Z,58.23
2023-05-12T01:08:03.592Z,58.19
2023-05-12T01:10:30.838Z,58.34
2023-05-12T01:12:58.393Z,58.29
2023-05-12T01:15:26.195Z,58.07
2023-05-12T01:17:57.611Z,58.38
2023-05-12T01:20:26.975Z,58.32
2023-05-12T01:22:55.727Z,58.32
2023-05-12T01:25:26.996Z,58.43
2023-05-12T01:27:54.667Z,58.23
2023-05-12T01:30:24.721Z,58.32
2023-05-12T01:32:52.847Z,58.27
2023-05-12T01:35:20.413Z,58.31
2023-05-12T01:37:55.801Z,58.38
2023-05-12T01:40:23.186Z,58.38
2023-05-12T01:42:50.674Z,58.51
2023-05-12T01:45:18.930Z,58.32
2023-05-12T01:47:46.853Z,58.37
2023-05-12T01:50:14.232Z,58.38
2023-05-12T01:52:41.617Z,58.45
2023-05-12T01:55:12.498Z,58.37
2023-05-12T01:57:49.874Z,58.53
2023-05-12T02:00:19.656Z,58.43
2023-05-12T02:02:49.246Z,58.44
2023-05-12T02:05:17.511Z,58.51
2023-05-12T02:07:47.597Z,58.55
2023-05-12T02:10:15.026Z,58.52
2023-05-12T02:12:42.351Z,58.55
2023-05-12T02:15:10.537Z,58.61
2023-05-12T02:17:42.690Z,58.67
2023-05-12T02:20:12.341Z,58.71
2023-05-12T02:22:39.855Z,58.65
2023-05-12T02:25:07.774Z,58.60
2023-05-12T02:27:35.845Z,58.62
2023-05-12T02:30:04.489Z,58.61
2023-05-12T02:32:33.805Z,58.68
2023-05-12T02:35:01.365Z,58.52
2023-05-12T02:37:29.437Z,58.57
2023-05-12T02:39:56.966Z,58.57
2023-05-12T02:42:25.111Z,58.59
2023-05-12T02:44:52.430Z,58.52
2023-05-12T02:47:19.725Z,58.56
2023-05-12T02:49:47.129Z,58.50
2023-05-12T02:52:15.042Z,58.38
2023-05-12T02:54:42.292Z,58.57
2023-05-12T02:57:10.851Z,58.45
2023-05-12T02:59:38.139Z,58.55
2023-05-12T03:02:05.662Z,58.57
2023-05-12T03:04:33.557Z,58.56
2023-05-12T03:07:00.981Z,58.55
2023-05-12T03:09:29.240Z,58.55
2023-05-12T03:11:56.625Z,58.44
2023-05-12T03:14:24.174Z,58.58
2023-05-12T03:16:51.512Z,58.48
2023-05-12T03:19:18.774Z,58.52
2023-05-12T03:21:46.220Z,58.46
2023-05-12T03:24:13.807Z,58.47
2023-05-12T03:26:41.138Z,58.41
2023-05-12T03:29:09.031Z,58.52
2023-05-12T03:31:36.637Z,58.41
2023-05-12T03:34:04.093Z,58.43
2023-05-12T03:36:31.931Z,58.46
2023-05-12T03:38:59.279Z,58.56
2023-05-12T03:41:26.765Z,58.41
2023-05-12T03:43:54.243Z,58.41
2023-05-12T03:46:21.603Z,58.47
2023-05-12T03:48:48.923Z,58.51
2023-05-12T03:51:16.156Z,58.43
2023-05-12T03:53:46.296Z,58.51
2023-05-12T03:56:15.657Z,58.49
2023-05-12T03:58:43.511Z,58.44
2023-05-12T04:01:10.880Z,58.38
2023-05-12T04:03:38.500Z,58.52
2023-05-12T04:06:06.032Z,58.34
2023-05-12T04:08:33.641Z,58.56
2023-05-12T04:11:02.325Z,58.45
2023-05-12T04:13:31.888Z,58.44
2023-05-12T04:16:00.424Z,58.57
2023-05-12T04:18:28.924Z,58.55
2023-05-12T04:20:56.913Z,58.55
2023-05-12T04:23:24.641Z,58.59
2023-05-12T04:25:51.953Z,58.46
2023-05-12T04:28:19.185Z,58.53
2023-05-12T04:30:46.675Z,58.49
2023-05-12T04:33:14.038Z,58.37
2023-05-12T04:35:41.824Z,58.42
2023-05-12T04:38:11.713Z,58.57
2023-05-12T04:40:39.089Z,58.44
2023-05-12T04:43:06.412Z,58.47
2023-05-12T04:45:33.833Z,58.38
2023-05-12T04:48:01.241Z,58.45
2023-05-12T04:50:28.484Z,58.35
2023-05-12T04:52:55.904Z,58.34
2023-05-12T04:55:23.601Z,58.35
2023-05-12T04:57:50.928Z,58.37
2023-05-12T05:00:18.452Z,58.34
2023-05-12T05:02:47.477Z,58.27
2023-05-12T05:05:15.672Z,58.26
2023-05-12T05:07:43.003Z,58.59
2023-05-12T05:10:10.924Z,58.35
2023-05-12T05:12:39.881Z,58.38
2023-05-12T05:15:09.781Z,58.54
2023-05-12T05:17:37.261Z,58.49
2023-05-12T05:20:11.762Z,58.41
2023-05-12T05:22:39.874Z,58.39
2023-05-12T05:25:09.378Z,58.66
2023-05-12T05:27:38.774Z,58.45
2023-05-12T05:30:09.310Z,58.56
2023-05-12T05:32:40.145Z,58.58
2023-05-12T05:35:08.418Z,58.46
2023-05-12T05:37:39.465Z,58.52
2023-05-12T05:40:07.782Z,58.49
2023-05-12T05:42:35.157Z,58.45
2023-05-12T05:45:02.683Z,58.54
2023-05-12T05:47:31.548Z,58.47
2023-05-12T05:49:59.252Z,58.40
2023-05-12T05:52:26.690Z,58.58
2023-05-12T05:54:53.971Z,58.46
2023-05-12T05:57:22.759Z,58.50
2023-05-12T05:59:50.522Z,58.61
2023-05-12T06:02:18.033Z,58.50
2023-05-12T06:04:45.347Z,58.57
2023-05-12T06:07:12.659Z,58.48
2023-05-12T06:09:39.914Z,58.61
2023-05-12T06:12:07.745Z,58.52
2023-05-12T06:14:34.990Z,58.52
2023-05-12T06:17:02.368Z,58.56
2023-05-12T06:19:31.047Z,58.70
2023-05-12T06:21:58.314Z,58.69
2023-05-12T06:24:25.674Z,58.80
2023-05-12T06:26:53.079Z,58.61
2023-05-12T06:29:21.269Z,58.58
2023-05-12T06:31:48.516Z,58.61
2023-05-12T06:34:16.327Z,58.65
2023-05-12T06:36:44.400Z,58.66
2023-05-12T06:39:12.088Z,58.78
2023-05-12T06:41:39.479Z,58.81
2023-05-12T06:44:07.887Z,58.72
2023-05-12T06:46:35.201Z,58.76
2023-05-12T06:49:02.588Z,58.69
2023-05-12T06:51:29.872Z,58.76
2023-05-12T06:53:57.192Z,58.73
2023-05-12T06:56:24.536Z,58.78
2023-05-12T06:58:52.743Z,58.73
2023-05-12T07:01:20.014Z,58.71
2023-05-12T07:03:47.334Z,58.92
2023-05-12T07:06:14.598Z,57.11
2023-05-12T07:08:41.925Z,57.10
2023-05-12T07:11:09.246Z,56.62
2023-05-12T07:13:38.070Z,56.67
2023-05-12T07:16:05.844Z,56.03
2023-05-12T07:18:33.163Z,55.99
2023-05-12T07:21:00.484Z,55.50
2023-05-12T07:23:27.753Z,55.23
2023-05-12T07:25:55.165Z,54.73
2023-05-12T07:28:22.468Z,54.59
2023-05-12T07:30:49.726Z,54.79
2023-05-12T07:33:17.056Z,54.51
2023-05-12T07:35:44.667Z,54.19
2023-05-12T07:38:11.951Z,53.98
2023-05-12T07:40:39.197Z,53.71
2023-05-12T07:43:06.437Z,53.32
2023-05-12T07:45:33.746Z,53.38
2023-05-12T07:48:01.071Z,53.44
2023-05-12T07:50:28.399Z,53.47
2023-05-12T07:52:55.690Z,53.44
2023-05-12T07:55:23.296Z,52.84
2023-05-12T07:57:50.980Z,52.98
2023-05-12T08:00:18.884Z,53.12
2023-05-12T08:02:47.208Z,53.01
2023-05-12T08:05:16.599Z,52.24
2023-05-12T08:07:45.286Z,51.88
2023-05-12T08:10:13.197Z,52.29
2023-05-12T08:12:41.182Z,52.39
2023-05-12T08:15:09.463Z,51.93
2023-05-12T08:17:37.119Z,51.61
2023-05-12T08:20:05.250Z,51.57
2023-05-12T08:22:32.580Z,51.17
2023-05-12T08:24:59.903Z,51.58
2023-05-12T08:27:27.317Z,51.46
2023-05-12T08:29:54.616Z,51.36
2023-05-12T08:32:22.459Z,51.42
2023-05-12T08:34:49.830Z,51.35
2023-05-12T08:37:17.335Z,52.16
2023-05-12T08:39:44.819Z,52.18
2023-05-12T08:42:40.537Z,52.25
2023-05-12T08:45:08.565Z,52.35
2023-05-12T08:47:37.732Z,52.76
2023-05-12T08:50:05.956Z,52.67
2023-05-12T08:52:34.757Z,52.91
2023-05-12T08:55:04.593Z,53.05
2023-05-12T08:57:31.848Z,52.61
2023-05-12T09:00:00.105Z,52.63
2023-05-12T09:02:37.702Z,52.93
2023-05-12T09:05:12.329Z,53.18
2023-05-12T09:07:44.075Z,53.10
2023-05-12T09:12:54.609Z,53.20
2023-05-12T09:15:29.988Z,53.14
2023-05-12T09:17:57.330Z,53.75
2023-05-12T09:20:31.421Z,53.58
2023-05-12T09:23:00.264Z,53.37
2023-05-12T09:25:27.530Z,52.95
2023-05-12T09:27:56.814Z,52.65
2023-05-12T09:30:31.957Z,53.12
2023-05-12T09:33:09.701Z,54.21
2023-05-12T09:35:41.472Z,54.14
2023-05-12T09:38:14.394Z,54.06
2023-05-12T09:40:43.206Z,54.17
2023-05-12T09:43:13.176Z,54.18
2023-05-12T09:45:44.029Z,53.66
2023-05-12T09:48:13.807Z,53.59
2023-05-12T09:50:50.582Z,53.57
2023-05-12T09:53:19.414Z,53.47
2023-05-12T09:55:47.827Z,53.91
2023-05-12T09:58:19.656Z,54.03
2023-05-12T10:03:18.573Z,54.32
2023-05-12T10:05:50.693Z,54.17
2023-05-12T10:08:22.774Z,54.15
2023-05-12T10:10:52.265Z,54.15
2023-05-12T10:13:20.407Z,54.21
2023-05-12T10:15:48.818Z,54.35
2023-05-12T10:18:17.665Z,54.36
2023-05-12T10:20:46.185Z,54.19
2023-05-12T10:23:14.555Z,54.19
2023-05-12T10:25:42.878Z,54.29
2023-05-12T10:28:14.784Z,54.33
2023-05-12T10:30:43.082Z,54.50
2023-05-12T10:33:11.760Z,54.29
2023-05-12T10:35:42.689Z,54.24
2023-05-12T10:38:12.085Z,54.30
2023-05-12T10:41:03.039Z,54.26
2023-05-12T10:43:45.395Z,54.26
2023-05-12T10:46:12.569Z,54.30
2023-05-12T10:49:07.793Z,54.33
2023-05-12T10:51:48.733Z,54.67
2023-05-12T10:54:21.362Z,54.25
2023-05-12T10:56:49.055Z,54.27
2023-05-12T10:59:20.874Z,54.19
2023-05-12T11:02:01.706Z,54.15
2023-05-12T11:04:41.574Z,54.18
2023-05-12T11:07:14.166Z,54.37
2023-05-12T11:09:56.753Z,54.21
2023-05-12T11:12:27.681Z,54.09
2023-05-12T11:14:55.160Z,54.08
2023-05-12T11:17:22.649Z,54.31
2023-05-12T11:19:51.052Z,54.27
2023-05-12T11:22:21.562Z,54.34
2023-05-12T11:24:50.611Z,54.46
2023-05-12T11:27:20.008Z,54.67
2023-05-12T11:29:56.954Z,54.89
2023-05-12T11:32:24.263Z,54.81
2023-05-12T11:34:51.592Z,54.86
2023-05-12T11:37:21.290Z,54.89
2023-05-12T11:39:49.225Z,54.93
2023-05-12T11:42:19.734Z,54.88
2023-05-12T11:44:49.493Z,55.00
2023-05-12T11:47:19.055Z,54.84
2023-05-12T11:49:54.825Z,55.08
2023-05-12T11:52:24.281Z,55.08
2023-05-12T11:54:58.643Z,55.10
2023-05-12T11:57:30.816Z,55.18
2023-05-12T12:00:04.316Z,55.05
2023-05-12T12:02:35.952Z,55.08
2023-05-12T12:05:03.552Z,55.23
2023-05-12T12:07:32.060Z,55.26
2023-05-12T12:10:11.045Z,55.16
2023-05-12T12:12:38.458Z,55.18
2023-05-12T12:15:06.538Z,55.23
2023-05-12T12:17:34.086Z,55.17
2023-05-12T12:20:01.721Z,55.34
2023-05-12T12:22:34.083Z,55.28
2023-05-12T12:25:02.802Z,55.36
2023-05-12T12:27:30.280Z,55.36
2023-05-12T12:29:57.491Z,55.55
2023-05-12T12:32:24.847Z,55.25
2023-05-12T12:34:52.824Z,55.34
2023-05-12T12:37:20.088Z,55.44
2023-05-12T12:39:50.637Z,55.39
2023-05-12T12:42:17.982Z,55.35
2023-05-12T12:44:50.312Z,55.33
2023-05-12T12:47:18.191Z,55.42
2023-05-12T12:49:45.609Z,55.37
2023-05-12T12:52:13.008Z,55.48
2023-05-12T12:54:40.397Z,55.51
2023-05-12T12:57:07.642Z,55.47
2023-05-12T12:59:35.309Z,55.65
2023-05-12T13:02:02.762Z,55.43
2023-05-12T13:04:30.263Z,55.54
2023-05-12T13:06:57.543Z,55.55
2023-05-12T13:09:24.753Z,55.46
2023-05-12T13:11:52.027Z,55.54
2023-05-12T13:14:19.361Z,55.52
2023-05-12T13:16:46.607Z,55.61
2023-05-12T13:19:14.375Z,55.60
2023-05-12T13:21:42.119Z,55.63
2023-05-12T13:24:09.378Z,55.55
2023-05-12T13:26:36.820Z,55.47
2023-05-12T13:29:04.327Z,55.60
2023-05-12T13:31:31.690Z,55.46
2023-05-12T13:33:59.038Z,55.60
2023-05-12T13:36:26.910Z,55.61
2023-05-12T13:38:54.198Z,55.75
2023-05-12T13:41:21.542Z,55.62
2023-05-12T13:43:48.853Z,55.65
2023-05-12T13:46:16.247Z,55.62
2023-05-12T13:48:43.763Z,55.67
2023-05-12T13:51:11.092Z,55.60
2023-05-12T13:53:39.630Z,55.71
2023-05-12T13:56:16.515Z,55.73
2023-05-12T13:58:44.247Z,55.69
2023-05-12T14:01:12.164Z,55.51
2023-05-12T14:03:40.457Z,55.76
2023-05-12T14:06:07.813Z,55.73
2023-05-12T14:08:35.302Z,55.59
2023-05-12T14:11:02.699Z,55.65
2023-05-12T14:13:30.309Z,55.63
2023-05-12T14:15:57.772Z,55.66
2023-05-12T14:18:26.453Z,55.70
2023-05-12T14:20:53.889Z,55.64
2023-05-12T14:23:23.768Z,55.82
2023-05-12T14:25:51.454Z,55.72
2023-05-12T14:28:18.735Z,55.73
2023-05-12T14:30:46.155Z,55.77
2023-05-12T14:33:13.851Z,55.81
2023-05-12T14:35:41.359Z,55.71
2023-05-12T14:38:09.119Z,55.85
2023-05-12T14:40:38.123Z,55.64
2023-05-12T14:43:07.198Z,55.72
2023-05-12T14:45:34.564Z,55.74
2023-05-12T14:48:01.920Z,55.73
2023-05-12T14:50:29.609Z,55.65
2023-05-12T14:52:57.429Z,55.71
2023-05-12T14:55:25.308Z,55.70
2023-05-12T14:57:52.621Z,55.64
2023-05-12T15:00:21.364Z,55.63
2023-05-12T15:02:48.820Z,55.76
2023-05-12T15:05:16.385Z,55.79
2023-05-12T15:07:43.677Z,55.60
2023-05-12T15:10:11.248Z,55.71
2023-05-12T15:12:38.489Z,55.49
2023-05-12T15:15:08.371Z,55.67
2023-05-12T15:17:35.777Z,55.82
2023-05-12T15:20:04.054Z,55.73
2023-05-12T15:22:32.281Z,55.74
2023-05-12T15:24:59.792Z,55.61
2023-05-12T15:27:27.289Z,55.61
2023-05-12T15:29:54.669Z,55.61
2023-05-12T15:32:22.082Z,55.80
2023-05-12T15:34:49.523Z,55.55
2023-05-12T15:37:17.019Z,55.66
2023-05-12T15:39:44.545Z,55.81
2023-05-12T15:42:12.570Z,55.87
2023-05-12T17:12:07.939Z,56.03
2023-05-12T17:16:53.037Z,56.30
2023-05-12T17:19:22.313Z,56.45
2023-05-12T17:33:39.960Z,56.13
2023-05-12T17:36:11.627Z,56.23
2023-05-12T17:38:40.895Z,56.17
2023-05-12T17:41:08.134Z,56.29
2023-05-12T17:43:35.517Z,56.46
2023-05-12T17:46:04.770Z,56.33
2023-05-12T17:48:35.948Z,56.69
2023-05-12T17:51:03.507Z,56.58
2023-05-12T17:53:32.053Z,56.66
2023-05-12T17:55:59.856Z,56.54
2023-05-12T17:58:27.529Z,57.06
2023-05-12T18:00:54.846Z,57.09
2023-05-12T18:03:24.854Z,57.00
2023-05-12T18:05:54.170Z,57.38
2023-05-12T18:08:21.922Z,57.35
2023-05-12T18:10:49.400Z,56.89
2023-05-12T18:13:16.757Z,56.68
2023-05-12T18:15:44.031Z,56.58
2023-05-12T18:18:11.412Z,56.95
2023-05-12T18:20:38.844Z,56.37
2023-05-12T18:23:06.169Z,56.19
2023-05-12T18:25:33.425Z,56.08
2023-05-12T18:28:00.703Z,55.94
2023-05-12T18:30:27.934Z,55.84
2023-05-12T18:32:55.335Z,55.83
2023-05-12T18:35:23.148Z,55.89
2023-05-12T18:37:50.682Z,56.00
2023-05-12T18:40:18.020Z,55.96
2023-05-12T18:42:45.300Z,56.09
2023-05-12T18:45:12.639Z,56.24
2023-05-12T18:47:40.059Z,56.66
2023-05-12T18:50:08.054Z,56.91
2023-05-12T18:52:35.923Z,56.89
2023-05-12T18:55:03.262Z,57.07
2023-05-12T18:57:30.594Z,57.25
2023-05-12T18:59:57.860Z,58.35
2023-05-12T19:02:25.197Z,58.11
2023-05-12T19:04:52.679Z,58.22
2023-05-12T19:07:19.980Z,58.41
2023-05-12T19:09:47.409Z,58.22
2023-05-12T19:12:14.739Z,58.28
2023-05-12T19:14:43.214Z,58.22
2023-05-12T19:17:10.849Z,58.17
2023-05-12T19:19:38.415Z,58.19
2023-05-12T19:22:05.824Z,58.32
2023-05-12T19:24:33.692Z,58.20
2023-05-12T19:27:01.392Z,58.22
2023-05-12T19:29:28.717Z,58.25
2023-05-12T19:31:56.244Z,58.26
2023-05-12T19:34:23.988Z,58.21
2023-05-12T19:36:52.834Z,58.24
2023-05-12T19:39:20.076Z,58.34
2023-05-12T19:41:47.571Z,58.22
2023-05-12T19:44:14.856Z,58.12
2023-05-12T19:46:42.251Z,57.00
2023-05-12T19:49:09.531Z,56.47
2023-05-12T19:51:36.825Z,56.33
2023-05-12T19:54:06.350Z,56.72
2023-05-12T19:56:33.879Z,57.25
2023-05-12T19:59:01.204Z,57.53
2023-05-12T20:01:28.613Z,57.68
2023-05-12T20:03:56.286Z,57.66
2023-05-12T20:06:25.094Z,58.12
2023-05-12T20:08:52.704Z,58.34
2023-05-12T20:11:20.049Z,58.82
2023-05-12T20:13:50.411Z,58.54
2023-05-12T20:16:18.614Z,57.82
2023-05-12T20:18:46.279Z,57.96
2023-05-12T20:21:13.590Z,58.42
2023-05-12T20:23:40.928Z,58.45
2023-05-12T20:26:08.490Z,58.96
2023-05-12T20:28:36.474Z,61.02
2023-05-12T20:31:04.131Z,62.12
2023-05-12T20:33:32.079Z,63.08
2023-05-12T20:35:59.484Z,62.30
2023-05-12T20:38:26.906Z,63.73
2023-05-12T20:40:54.124Z,64.52
2023-05-12T20:43:21.537Z,64.63
2023-05-12T20:45:48.848Z,64.94
2023-05-12T20:48:16.325Z,65.17
2023-05-12T20:50:43.863Z,65.43
2023-05-12T20:53:11.218Z,65.49
2023-05-12T20:55:42.868Z,65.49
2023-05-12T20:58:10.361Z,65.25
2023-05-12T21:00:37.929Z,65.21
2023-05-12T21:03:06.036Z,65.20
2023-05-12T21:05:33.335Z,65.18
2023-05-12T21:08:00.712Z,64.97
2023-05-12T21:10:27.977Z,65.12
2023-05-12T21:12:55.241Z,65.14
2023-05-12T21:15:23.147Z,65.69
2023-05-12T21:17:51.603Z,65.94
2023-05-12T21:20:19.220Z,65.48
2023-05-12T21:22:46.670Z,65.34
2023-05-12T21:25:13.984Z,65.07
2023-05-12T21:27:41.288Z,64.89
2023-05-12T21:30:10.469Z,64.72
2023-05-12T21:32:37.947Z,64.94
2023-05-12T21:35:07.095Z,65.76
2023-05-12T21:37:34.486Z,65.02
2023-05-12T21:40:01.991Z,64.91
2023-05-12T21:42:29.266Z,64.68
2023-05-12T21:44:56.667Z,63.74
2023-05-12T21:47:23.986Z,64.29
2023-05-12T21:49:55.349Z,65.33
2023-05-12T21:52:23.353Z,64.67
2023-05-12T21:54:50.659Z,64.37
2023-05-12T21:57:18.031Z,64.17
2023-05-12T21:59:48.457Z,63.99
2023-05-12T22:02:16.114Z,64.13
2023-05-12T22:04:43.461Z,64.34
2023-05-12T22:07:10.732Z,63.84
2023-05-12T22:09:37.943Z,63.84
2023-05-12T22:12:05.808Z,63.85
2023-05-12T22:14:33.113Z,63.94
2023-05-12T22:17:00.754Z,63.68
2023-05-12T22:19:28.217Z,63.77
2023-05-12T22:21:55.779Z,63.73
2023-05-12T22:24:23.056Z,63.95
2023-05-12T22:26:50.308Z,63.65
2023-05-12T22:29:17.567Z,63.58
2023-05-12T22:31:44.884Z,63.19
2023-05-12T22:34:12.246Z,63.25
2023-05-12T22:36:39.632Z,63.40
2023-05-12T22:39:06.971Z,62.78
2023-05-12T22:41:34.258Z,63.12
2023-05-12T22:44:01.466Z,63.07
2023-05-12T22:46:28.779Z,63.05
2023-05-12T22:48:56.294Z,62.07
2023-05-12T22:51:23.601Z,63.01
2023-05-12T22:53:50.902Z,62.06
2023-05-12T22:56:18.179Z,62.35
2023-05-12T22:58:45.518Z,63.53
2023-05-12T23:01:12.831Z,63.68
2023-05-12T23:03:40.135Z,63.76
2023-05-12T23:06:07.493Z,63.72
2023-05-12T23:08:35.096Z,63.53
2023-05-12T23:11:02.383Z,63.94
2023-05-12T23:13:29.640Z,63.95
2023-05-12T23:15:56.817Z,63.52
2023-05-12T23:18:24.146Z,63.95
2023-05-12T23:20:51.460Z,63.67
2023-05-12T23:23:18.676Z,64.02
2023-05-12T23:25:47.150Z,63.95
2023-05-12T23:28:14.371Z,63.81
2023-05-12T23:30:41.645Z,63.78
2023-05-12T23:33:08.902Z,63.80
2023-05-12T23:35:36.247Z,63.69
2023-05-12T23:38:03.767Z,63.94
2023-05-12T23:40:33.378Z,63.58
2023-05-12T23:43:00.741Z,63.78
2023-05-12T23:45:28.287Z,63.72
2023-05-12T23:47:55.839Z,63.56
2023-05-12T23:50:23.676Z,63.40
2023-05-12T23:52:54.650Z,63.40
2023-05-12T23:55:23.235Z,63.35
2023-05-12T23:57:50.586Z,63.52
